Time;durP1;ratioP1;P1;durP2;ratioP2;P2;SDS_P1;SDS_P2;PMS_P1;PMS_P2;Temp;Humidity;BMP_temperature;BMP_pressure;BME280_temperature;BME280_humidity;BME280_pressure;Samples;Min_cycle;Max_cycle;Signal;HPM_P1;HPM_P2
2022/04/19 00:00:00;;;;;;;6.70;3.15;;;8.20;75.40;;;;;;5032432;28;20038;-64
2022/04/19 00:03:06;;;;;;;5.30;2.97;;;8.20;76.30;;;;;;5032466;28;20037;-64
2022/04/19 00:06:10;;;;;;;5.22;2.70;;;8.10;77.40;;;;;;5032259;28;20038;-63
2022/04/19 00:09:14;;;;;;;7.53;2.72;;;8.10;75.40;;;;;;5032340;28;20045;-64
2022/04/19 00:12:19;;;;;;;7.80;2.75;;;8.20;75.50;;;;;;5032156;28;20037;-64
2022/04/19 00:15:27;;;;;;;4.72;3.00;;;8.20;75.00;;;;;;5032013;28;20049;-64
2022/04/19 00:18:32;;;;;;;7.68;2.65;;;8.30;75.10;;;;;;5031965;28;20037;-64
2022/04/19 00:21:36;;;;;;;6.97;3.22;;;8.30;76.60;;;;;;5031895;28;20030;-63
2022/04/19 00:24:41;;;;;;;6.57;3.05;;;8.20;76.70;;;;;;5031644;28;20029;-64
2022/04/19 00:27:46;;;;;;;4.75;2.40;;;8.20;76.20;;;;;;5031689;28;20045;-65
2022/04/19 00:30:50;;;;;;;7.40;3.90;;;8.20;75.50;;;;;;5032185;28;20038;-64
2022/04/19 00:33:54;;;;;;;11.77;3.72;;;8.20;75.70;;;;;;5031964;28;20038;-65
2022/04/19 00:37:00;;;;;;;8.77;3.65;;;8.20;75.20;;;;;;5030455;28;20052;-64
2022/04/19 00:40:06;;;;;;;8.00;3.30;;;8.10;74.90;;;;;;5031750;28;20038;-64
2022/04/19 00:43:12;;;;;;;9.50;4.30;;;8.10;75.10;;;;;;5031702;28;20045;-63
2022/04/19 00:46:16;;;;;;;7.68;3.63;;;8.00;76.50;;;;;;5031456;28;20038;-64
2022/04/19 00:49:20;;;;;;;6.63;3.30;;;8.00;76.80;;;;;;5030962;28;20049;-63
2022/04/19 00:52:24;;;;;;;6.63;3.00;;;8.00;76.20;;;;;;5030009;28;20037;-64
2022/04/19 00:55:29;;;;;;;8.35;2.90;;;7.90;75.90;;;;;;5030990;28;20045;-63
2022/04/19 00:58:34;;;;;;;5.15;2.55;;;7.90;76.00;;;;;;5030575;28;20491;-64
2022/04/19 01:01:38;;;;;;;3.88;2.50;;;7.80;76.80;;;;;;5030503;28;20034;-63
2022/04/19 01:04:42;;;;;;;3.92;3.20;;;7.80;78.00;;;;;;5030837;28;20034;-63
2022/04/19 01:07:49;;;;;;;4.70;2.53;;;7.70;78.50;;;;;;5030137;28;20057;-63
2022/04/19 01:14:36;;;;;;;4.60;3.00;;;7.70;78.70;;;;;;5030422;28;20053;-64
2022/04/19 01:17:40;;;;;;;5.03;3.72;;;7.60;79.60;;;;;;5029461;28;20037;-63
2022/04/19 01:20:48;;;;;;;7.32;2.92;;;7.50;79.50;;;;;;5030042;28;20362;-63
2022/04/19 01:23:55;;;;;;;5.60;3.35;;;7.40;79.50;;;;;;5028279;28;20033;-64
2022/04/19 01:26:59;;;;;;;12.95;8.77;;;7.40;80.40;;;;;;5029629;28;20045;-63
2022/04/19 01:30:08;;;;;;;6.47;5.88;;;7.40;80.40;;;;;;5029876;28;20045;-63
2022/04/19 01:33:14;;;;;;;8.90;4.53;;;7.40;80.00;;;;;;5029468;28;20033;-64
2022/04/19 01:36:20;;;;;;;6.25;3.70;;;7.40;80.40;;;;;;5029135;28;20021;-63
2022/04/19 01:42:52;;;;;;;8.15;4.13;;;7.20;79.20;;;;;;5029662;28;20033;-63
2022/04/19 01:45:57;;;;;;;6.72;3.35;;;7.10;79.60;;;;;;5029763;28;20037;-64
2022/04/19 01:49:04;;;;;;;4.28;2.78;;;7.10;80.40;;;;;;5029853;28;20041;-64
2022/04/19 01:52:08;;;;;;;4.07;2.88;;;7.00;81.80;;;;;;5029740;28;20038;-63
2022/04/19 01:55:16;;;;;;;8.50;2.95;;;7.00;81.50;;;;;;5029500;28;20037;-64
2022/04/19 01:58:20;;;;;;;8.43;2.65;;;7.00;81.40;;;;;;5029002;28;20484;-64
2022/04/19 02:01:24;;;;;;;10.80;2.83;;;6.90;81.20;;;;;;5029773;28;20369;-64
2022/04/19 02:04:28;;;;;;;4.15;2.58;;;6.90;81.80;;;;;;5028687;28;20041;-64
2022/04/19 02:07:32;;;;;;;5.82;2.55;;;6.80;82.10;;;;;;5029212;28;20045;-64
2022/04/19 02:10:38;;;;;;;3.70;2.42;;;6.80;83.10;;;;;;5029788;28;20500;-63
2022/04/19 02:13:44;;;;;;;4.07;2.85;;;6.70;83.70;;;;;;5029327;28;20037;-64
2022/04/19 02:16:55;;;;;;;3.42;2.15;;;6.70;84.00;;;;;;5029330;28;20480;-64
2022/04/19 02:20:06;;;;;;;6.72;2.47;;;6.70;83.80;;;;;;5030505;28;20049;-64
2022/04/19 02:23:13;;;;;;;5.32;2.42;;;6.70;83.50;;;;;;5030146;28;20472;-63
2022/04/19 02:26:19;;;;;;;6.03;2.67;;;6.70;83.40;;;;;;5029324;28;20037;-63
2022/04/19 02:29:25;;;;;;;4.63;2.85;;;6.70;83.60;;;;;;5029300;28;20045;-63
2022/04/19 02:32:29;;;;;;;5.57;3.05;;;6.70;83.30;;;;;;5029103;28;20046;-63
2022/04/19 02:35:33;;;;;;;4.90;3.20;;;6.70;83.50;;;;;;5029437;28;20054;-64
2022/04/19 02:38:39;;;;;;;5.72;3.15;;;6.60;83.70;;;;;;5029035;28;20472;-63
2022/04/19 02:41:44;;;;;;;7.32;3.22;;;6.60;84.20;;;;;;5029235;28;20038;-64
2022/04/19 02:44:49;;;;;;;6.30;3.22;;;6.50;84.50;;;;;;5029177;28;20033;-63
2022/04/19 02:48:04;;;;;;;5.53;3.15;;;6.50;84.70;;;;;;5028716;28;20369;-64
2022/04/19 02:51:08;;;;;;;6.32;3.40;;;6.40;85.40;;;;;;5029037;28;20041;-64
2022/04/19 02:54:12;;;;;;;8.40;2.70;;;6.30;86.30;;;;;;5029089;28;20042;-63
2022/04/19 02:57:15;;;;;;;5.25;3.33;;;6.20;87.20;;;;;;5028573;28;20449;-63
2022/04/19 03:00:20;;;;;;;6.18;2.97;;;6.00;87.80;;;;;;5029081;28;20038;-64
2022/04/19 03:03:24;;;;;;;5.10;3.10;;;5.90;89.00;;;;;;5029635;28;20041;-64
2022/04/19 03:06:29;;;;;;;7.68;3.47;;;5.80;90.00;;;;;;5028531;28;20033;-64
2022/04/19 03:09:35;;;;;;;6.25;3.15;;;5.70;90.50;;;;;;5028903;28;20041;-63
2022/04/19 03:12:39;;;;;;;6.38;3.10;;;5.60;90.70;;;;;;5029231;28;20480;-63
2022/04/19 03:15:51;;;;;;;;;;;5.50;91.10;;;;;;5031703;28;20049;-63
2022/04/19 03:18:57;;;;;;;4.05;2.80;;;5.40;91.50;;;;;;5032610;28;19924;-64
2022/04/19 03:22:01;;;;;;;5.72;3.60;;;5.40;91.70;;;;;;5032131;28;20033;-64
2022/04/19 03:28:34;;;;;;;11.77;3.45;;;5.40;92.50;;;;;;5016388;28;20037;-64
2022/04/19 03:31:38;;;;;;;7.28;3.47;;;5.40;92.30;;;;;;5032318;28;20044;-64
2022/04/19 03:34:43;;;;;;;10.05;3.92;;;5.40;92.40;;;;;;5032394;28;20207;-63
2022/04/19 03:37:47;;;;;;;7.65;3.40;;;5.40;92.60;;;;;;5031715;28;20056;-63
2022/04/19 03:40:52;;;;;;;8.25;3.83;;;5.40;92.50;;;;;;5031662;28;20037;-64
2022/04/19 03:43:57;;;;;;;6.28;3.53;;;5.40;92.40;;;;;;5032873;28;20041;-65
2022/04/19 03:47:07;;;;;;;4.22;3.00;;;5.30;92.60;;;;;;5032124;28;20033;-64
2022/04/19 03:50:11;;;;;;;5.88;3.20;;;5.20;93.00;;;;;;5031567;28;20033;-64
2022/04/19 03:53:15;;;;;;;13.13;3.75;;;5.20;93.30;;;;;;5032064;28;20037;-63
2022/04/19 03:56:19;;;;;;;6.43;3.17;;;5.10;93.10;;;;;;5031371;28;20049;-63
2022/04/19 03:59:24;;;;;;;6.90;2.90;;;5.10;93.30;;;;;;5031457;28;20507;-63
2022/04/19 04:02:29;;;;;;;7.30;3.50;;;5.10;93.60;;;;;;5031480;28;20045;-63
2022/04/19 04:05:33;;;;;;;8.60;3.70;;;5.10;93.80;;;;;;5032601;28;20037;-64
2022/04/19 04:08:37;;;;;;;6.20;3.22;;;5.10;93.80;;;;;;5031335;28;20045;-64
2022/04/19 04:11:40;;;;;;;4.25;3.00;;;5.10;94.00;;;;;;5031543;28;20041;-64
2022/04/19 04:14:56;;;;;;;7.10;3.60;;;5.10;93.90;;;;;;5031366;28;20495;-64
2022/04/19 04:18:00;;;;;;;7.50;3.38;;;5.10;93.80;;;;;;5030876;28;20033;-64
2022/04/19 04:21:04;;;;;;;8.15;3.15;;;5.10;93.70;;;;;;5031283;28;20362;-64
2022/04/19 04:24:08;;;;;;;9.43;3.53;;;5.10;93.80;;;;;;5030688;28;20030;-64
2022/04/19 04:27:18;;;;;;;8.88;3.63;;;5.10;93.90;;;;;;5030085;28;20042;-64
2022/04/19 04:30:22;;;;;;;8.90;3.85;;;5.20;93.90;;;;;;5031099;28;20030;-64
2022/04/19 04:33:35;;;;;;;9.15;4.18;;;5.20;94.10;;;;;;5031159;28;20374;-64
2022/04/19 04:36:42;;;;;;;13.48;4.20;;;5.20;94.20;;;;;;5030615;28;20034;-64
2022/04/19 04:39:49;;;;;;;8.48;4.20;;;5.20;94.60;;;;;;5030549;28;20032;-64
2022/04/19 04:43:03;;;;;;;7.18;3.28;;;5.30;94.50;;;;;;5031781;28;20038;-64
2022/04/19 04:49:37;;;;;;;8.98;4.35;;;5.30;94.20;;;;;;5030576;28;20488;-64
2022/04/19 04:52:41;;;;;;;13.32;4.80;;;5.30;94.50;;;;;;5030275;28;20033;-65
2022/04/19 04:55:46;;;;;;;6.13;4.00;;;5.40;94.40;;;;;;5030871;28;20396;-64
2022/04/19 04:58:59;;;;;;;5.25;3.47;;;5.50;94.10;;;;;;5030078;28;20033;-64
2022/04/19 05:02:08;;;;;;;7.90;4.20;;;5.50;93.60;;;;;;5030296;28;20037;-64
2022/04/19 05:05:11;;;;;;;6.22;3.35;;;5.50;93.80;;;;;;5030411;28;20041;-63
2022/04/19 05:08:18;;;;;;;6.00;3.45;;;5.50;94.00;;;;;;5029946;28;20042;-64
2022/04/19 05:11:22;;;;;;;7.22;3.60;;;5.30;94.00;;;;;;5030279;28;20758;-64
2022/04/19 05:14:27;;;;;;;6.90;4.00;;;5.30;94.50;;;;;;5029779;28;20049;-63
2022/04/19 05:17:31;;;;;;;5.38;3.42;;;5.40;94.60;;;;;;5029638;28;20041;-63
2022/04/19 05:20:36;;;;;;;6.32;3.78;;;5.50;94.90;;;;;;5030278;28;20045;-64
2022/04/19 05:23:41;;;;;;;7.30;3.38;;;8.20;93.20;;;;;;5030871;28;20319;-63
2022/04/19 05:26:46;;;;;;;7.75;4.68;;;11.10;86.60;;;;;;5029669;28;20049;-64
2022/04/19 05:29:50;;;;;;;6.43;4.47;;;13.00;79.60;;;;;;5030827;28;20060;-64
2022/04/19 05:32:54;;;;;;;16.48;5.82;;;14.50;75.00;;;;;;5029909;28;20499;-63
2022/04/19 05:35:58;;;;;;;11.13;3.60;;;15.40;72.80;;;;;;5029549;28;20064;-64
2022/04/19 05:39:02;;;;;;;9.32;3.38;;;15.80;70.70;;;;;;5029679;28;20048;-63
2022/04/19 05:42:08;;;;;;;16.10;3.35;;;16.00;69.70;;;;;;5029901;28;20404;-64
2022/04/19 05:45:14;;;;;;;14.98;3.50;;;16.70;67.90;;;;;;5029855;28;20049;-64
2022/04/19 05:48:18;;;;;;;6.68;3.00;;;17.10;66.40;;;;;;5029073;28;20053;-64
2022/04/19 05:51:22;;;;;;;8.80;3.90;;;17.60;64.40;;;;;;5029478;28;20259;-65
2022/04/19 05:54:26;;;;;;;4.28;2.70;;;17.90;63.20;;;;;;5029222;28;20053;-63
2022/04/19 05:57:35;;;;;;;4.95;2.90;;;18.80;61.40;;;;;;5029230;28;20056;-64
2022/04/19 06:00:39;;;;;;;8.50;3.35;;;18.90;60.80;;;;;;5029667;28;20052;-63
2022/04/19 06:07:08;;;;;;;5.38;3.30;;;16.30;63.40;;;;;;5034960;28;20056;-64
2022/04/19 06:10:14;;;;;;;6.03;3.40;;;15.40;64.40;;;;;;5023655;28;20171;-63
2022/04/19 06:13:19;;;;;;;5.65;3.00;;;15.20;64.80;;;;;;5043535;28;20515;-64
2022/04/19 06:16:24;;;;;;;4.93;2.58;;;16.00;65.50;;;;;;5028704;28;20412;-64
2022/04/19 06:19:31;;;;;;;3.88;2.30;;;17.90;62.80;;;;;;5032442;28;20044;-64
2022/04/19 06:22:35;;;;;;;5.25;2.80;;;18.90;60.80;;;;;;5020334;28;20044;-65
2022/04/19 06:25:44;;;;;;;4.03;2.50;;;20.00;60.50;;;;;;5032362;28;20041;-63
2022/04/19 06:28:49;;;;;;;5.88;2.53;;;20.40;57.80;;;;;;5019734;28;20048;-63
2022/04/19 06:32:20;;;;;;;6.03;2.38;;;20.70;56.70;;;;;;5024153;28;20044;-63
2022/04/19 06:35:27;;;;;;;7.00;3.35;;;20.80;56.70;;;;;;5019590;28;20040;-64
2022/04/19 06:38:30;;;;;;;5.93;2.53;;;21.00;57.10;;;;;;5037621;28;20048;-64
2022/04/19 06:41:36;;;;;;;5.57;2.53;;;20.30;57.00;;;;;;5027242;28;20041;-64
2022/04/19 06:44:40;;;;;;;5.13;2.45;;;19.30;57.90;;;;;;5025757;28;20116;-65
2022/04/19 06:47:58;;;;;;;5.68;2.50;;;19.30;58.10;;;;;;5031352;28;20048;-64
2022/04/19 06:51:04;;;;;;;3.70;2.72;;;18.90;58.30;;;;;;5029765;28;20037;-64
2022/04/19 06:54:09;;;;;;;4.35;2.33;;;19.10;57.90;;;;;;5034091;28;20040;-63
2022/04/19 06:57:19;;;;;;;6.50;3.25;;;19.70;57.80;;;;;;5025665;28;20044;-64
2022/04/19 07:00:23;;;;;;;5.55;3.25;;;19.70;56.70;;;;;;5039589;28;20519;-64
2022/04/19 07:03:27;;;;;;;4.95;2.63;;;17.30;58.90;;;;;;5027244;28;20036;-64
2022/04/19 07:06:41;;;;;;;5.28;2.40;;;17.00;61.40;;;;;;5036324;28;20047;-64
2022/04/19 07:09:47;;;;;;;7.50;3.00;;;18.90;60.30;;;;;;5030199;28;20048;-64
2022/04/19 07:12:52;;;;;;;4.18;2.60;;;19.30;58.70;;;;;;5034752;28;20044;-64
2022/04/19 07:15:57;;;;;;;5.03;2.50;;;16.80;60.00;;;;;;5031679;28;20068;-65
2022/04/19 07:19:02;;;;;;;5.80;3.05;;;16.00;62.70;;;;;;5028832;28;20048;-64
2022/04/19 07:28:57;;;;;;;3.65;2.70;;;15.60;64.60;;;;;;5023464;28;20045;-63
2022/04/19 07:32:02;;;;;;;4.45;2.53;;;15.20;65.10;;;;;;5029808;28;20048;-65
2022/04/19 07:35:27;;;;;;;6.82;3.15;;;15.40;64.80;;;;;;5027545;28;20400;-64
2022/04/19 07:38:33;;;;;;;6.00;3.53;;;15.60;65.30;;;;;;5029925;28;20048;-64
2022/04/19 07:41:57;;;;;;;7.78;4.00;;;16.10;64.60;;;;;;5026919;28;20495;-64
2022/04/19 07:45:02;;;;;;;8.00;4.35;;;16.70;64.50;;;;;;5029749;28;20040;-62
2022/04/19 07:48:06;;;;;;;12.05;4.68;;;17.20;63.30;;;;;;5028669;28;20044;-64
2022/04/19 07:51:14;;;;;;;6.53;4.70;;;17.10;63.80;;;;;;5030105;28;20141;-63
2022/04/19 07:54:19;;;;;;;6.03;4.00;;;17.30;63.60;;;;;;5038658;28;20408;-64
2022/04/19 07:57:26;;;;;;;7.28;4.20;;;17.80;63.50;;;;;;5020630;28;20036;-63
2022/04/19 08:00:33;;;;;;;6.68;4.00;;;18.30;63.10;;;;;;5027043;28;20370;-64
2022/04/19 08:03:37;;;;;;;6.15;4.05;;;19.60;61.90;;;;;;5023066;28;20037;-64
2022/04/19 08:06:42;;;;;;;7.43;3.15;;;20.30;59.50;;;;;;5030950;28;20048;-63
2022/04/19 08:09:46;;;;;;;4.82;3.30;;;18.50;60.40;;;;;;5028499;28;20056;-63
2022/04/19 08:12:50;;;;;;;4.03;2.80;;;18.50;60.80;;;;;;5023962;28;20053;-63
2022/04/19 08:15:54;;;;;;;7.80;3.03;;;20.70;59.20;;;;;;5026572;28;20052;-64
2022/04/19 08:18:59;;;;;;;5.63;3.15;;;21.20;56.70;;;;;;5020015;28;20052;-63
2022/04/19 08:22:04;;;;;;;4.55;2.85;;;23.10;55.90;;;;;;5027200;28;20400;-64
2022/04/19 08:25:11;;;;;;;4.25;2.45;;;25.30;54.40;;;;;;5022902;28;20045;-61
2022/04/19 08:28:19;;;;;;;4.07;2.78;;;25.30;52.60;;;;;;5028995;28;20044;-61
2022/04/19 08:31:23;;;;;;;7.00;4.32;;;26.80;52.20;;;;;;5045284;28;20039;-62
2022/04/19 08:34:28;;;;;;;6.78;3.55;;;27.30;51.80;;;;;;5027900;28;20040;-62
2022/04/19 08:37:34;;;;;;;9.48;4.72;;;27.90;50.20;;;;;;5027568;28;20040;-62
2022/04/19 08:40:40;;;;;;;6.47;3.85;;;28.70;49.20;;;;;;5021612;28;20045;-62
2022/04/19 08:43:47;;;;;;;9.32;3.35;;;29.70;49.40;;;;;;5023939;28;20404;-62
2022/04/19 08:46:54;;;;;;;8.68;3.70;;;30.60;48.00;;;;;;5029312;28;20060;-62
2022/04/19 08:50:02;;;;;;;3.38;2.45;;;30.60;47.20;;;;;;5029128;28;20511;-62
2022/04/19 08:59:56;;;;;;;5.82;2.22;;;32.50;44.30;;;;;;5034970;28;20056;-62
2022/04/19 09:03:01;;;;;;;3.50;1.90;;;30.90;45.20;;;;;;5030979;28;20044;-62
2022/04/19 09:06:05;;;;;;;8.85;2.80;;;33.70;44.90;;;;;;5031561;28;20040;-62
2022/04/19 09:09:10;;;;;;;5.25;2.35;;;31.60;41.80;;;;;;5032483;28;20051;-62
2022/04/19 09:12:15;;;;;;;6.80;2.03;;;27.70;46.40;;;;;;5031930;28;20053;-65
2022/04/19 09:15:19;;;;;;;113.00;74.75;;;27.20;47.60;;;;;;5031568;28;20048;-64
2022/04/19 09:18:24;;;;;;;21.88;8.82;;;27.20;47.70;;;;;;5032141;28;20076;-63
2022/04/19 09:21:39;;;;;;;12.57;6.30;;;26.90;48.90;;;;;;5029093;28;20053;-63
2022/04/19 09:24:43;;;;;;;8.55;2.30;;;24.10;50.20;;;;;;5031372;28;20040;-63
2022/04/19 09:27:48;;;;;;;4.25;2.65;;;24.00;51.60;;;;;;5017492;28;20060;-65
2022/04/19 09:30:56;;;;;;;3.80;1.83;;;23.60;52.70;;;;;;5021202;28;20053;-64
2022/04/19 09:34:00;;;;;;;5.45;2.38;;;24.30;50.40;;;;;;5031417;28;20044;-64
2022/04/19 09:37:10;;;;;;;27.02;18.02;;;27.30;49.40;;;;;;5023895;28;20048;-64
2022/04/19 09:40:14;;;;;;;9.10;3.17;;;29.60;47.10;;;;;;5029837;28;20416;-64
2022/04/19 09:43:23;;;;;;;10.27;4.38;;;29.70;45.60;;;;;;5028976;28;20048;-64
2022/04/19 09:46:28;;;;;;;13.43;8.00;;;28.80;46.40;;;;;;5025604;28;20048;-64
2022/04/19 09:49:53;;;;;;;8.88;3.65;;;28.70;47.90;;;;;;5024288;28;20323;-63
2022/04/19 09:52:57;;;;;;;3.15;1.80;;;28.40;47.80;;;;;;5036820;28;20056;-64
2022/04/19 09:56:11;;;;;;;9.18;3.75;;;27.50;47.40;;;;;;5029278;28;20056;-61
2022/04/19 09:59:24;;;;;;;7.35;1.60;;;29.10;48.90;;;;;;5029066;28;20036;-64
2022/04/19 10:09:14;;;;;;;5.75;1.88;;;35.30;45.20;;;;;;5029043;28;20380;-73
2022/04/19 10:12:18;;;;;;;4.55;2.20;;;31.40;46.40;;;;;;5032269;28;20044;-72
2022/04/19 10:15:22;;;;;;;4.25;1.75;;;28.90;46.00;;;;;;5033630;28;20052;-73
2022/04/19 10:18:26;;;;;;;4.53;1.92;;;27.20;48.80;;;;;;5025943;28;20052;-73
2022/04/19 10:21:34;;;;;;;5.00;1.98;;;27.10;49.20;;;;;;5022582;28;20041;-72
2022/04/19 10:24:51;;;;;;;6.75;2.03;;;27.60;49.50;;;;;;5030499;28;20061;-73
2022/04/19 10:28:05;;;;;;;5.47;2.55;;;31.80;49.20;;;;;;5027757;28;20052;-73
2022/04/19 10:31:11;;;;;;;5.35;1.73;;;35.20;44.80;;;;;;5027617;28;20042;-74
2022/04/19 10:34:23;;;;;;;6.80;1.40;;;32.20;45.10;;;;;;5018102;28;20052;-74
2022/04/19 10:37:29;;;;;;;2.83;1.33;;;32.30;46.40;;;;;;5028618;28;20480;-74
2022/04/19 10:40:49;;;;;;;3.53;1.50;;;30.90;46.90;;;;;;5031326;28;20503;-74
2022/04/19 10:44:38;;;;;;;5.53;1.80;;;30.20;48.10;;;;;;5037354;28;20384;-73
2022/04/19 10:47:51;;;;;;;4.53;1.73;;;26.10;50.90;;;;;;4982561;28;20509;-73
2022/04/19 10:51:15;;;;;;;4.88;1.70;;;23.60;53.20;;;;;;5040213;28;20064;-73
2022/04/19 10:54:57;;;;;;;4.28;1.70;;;24.10;54.80;;;;;;5031961;28;20048;-73
2022/04/19 10:58:16;;;;;;;3.28;1.40;;;25.80;53.00;;;;;;5035508;28;20045;-73
2022/04/19 11:01:30;;;;;;;6.53;1.65;;;27.90;51.20;;;;;;5040361;28;20511;-73
2022/04/19 11:04:38;;;;;;;3.10;1.50;;;29.60;50.30;;;;;;5033539;28;20055;-72
2022/04/19 11:07:43;;;;;;;5.00;1.92;;;30.30;49.80;;;;;;5030189;28;20044;-73
2022/04/19 11:10:48;;;;;;;6.60;1.95;;;30.60;50.60;;;;;;5030385;28;20049;-72
2022/04/19 11:14:18;;;;;;;6.28;1.80;;;29.80;50.20;;;;;;5027204;28;20041;-72
2022/04/19 11:17:24;;;;;;;6.18;1.75;;;26.20;51.60;;;;;;5030722;28;20044;-72
2022/04/19 11:20:45;;;;;;;4.15;1.40;;;29.40;50.40;;;;;;5029164;28;20045;-73
2022/04/19 11:23:50;;;;;;;3.53;1.33;;;31.00;48.80;;;;;;5046963;28;20051;-73
2022/04/19 11:26:55;;;;;;;8.40;1.52;;;29.90;49.60;;;;;;5035976;28;20361;-73
2022/04/19 11:30:12;;;;;;;4.93;1.52;;;24.70;54.30;;;;;;5031944;28;20036;-63
2022/04/19 11:33:28;;;;;;;6.00;1.80;;;22.80;55.80;;;;;;5031359;28;20053;-64
2022/04/19 11:36:35;;;;;;;3.83;1.88;;;22.10;58.50;;;;;;5037207;28;20052;-63
2022/04/19 11:46:45;;;;;;;12.75;2.28;;;23.40;58.00;;;;;;5029190;28;20878;-64
2022/04/19 11:49:49;;;;;;;5.00;1.95;;;23.90;56.50;;;;;;5031545;28;20044;-64
2022/04/19 11:52:54;;;;;;;4.15;1.58;;;24.20;55.30;;;;;;5030447;28;20511;-64
2022/04/19 11:55:59;;;;;;;3.92;1.73;;;24.30;55.60;;;;;;5031846;28;20036;-65
2022/04/19 11:59:03;;;;;;;3.90;1.52;;;24.90;56.80;;;;;;5028700;28;20051;-63
2022/04/19 12:02:17;;;;;;;6.20;1.40;;;24.60;54.30;;;;;;5029457;28;20044;-65
2022/04/19 12:05:28;;;;;;;11.73;1.52;;;25.50;54.40;;;;;;5032762;28;20036;-63
2022/04/19 12:08:41;;;;;;;6.85;1.40;;;26.30;53.70;;;;;;5035431;28;20036;-63
2022/04/19 12:11:47;;;;;;;5.70;1.92;;;26.50;53.60;;;;;;5024679;28;20045;-63
2022/04/19 12:14:53;;;;;;;8.23;1.65;;;26.30;53.80;;;;;;5032416;28;20056;-63
2022/04/19 12:17:57;;;;;;;5.88;1.88;;;26.60;53.50;;;;;;5030012;28;20041;-63
2022/04/19 12:21:03;;;;;;;9.07;1.90;;;26.60;54.10;;;;;;5032334;28;20048;-63
2022/04/19 12:24:19;;;;;;;3.90;1.67;;;26.30;54.60;;;;;;5027975;28;20384;-62
2022/04/19 12:27:26;;;;;;;2.85;1.48;;;25.30;53.60;;;;;;5025449;28;20345;-63
2022/04/19 12:30:30;;;;;;;4.80;1.58;;;25.70;55.50;;;;;;5030026;28;20503;-64
2022/04/19 12:33:52;;;;;;;3.70;1.60;;;27.90;53.20;;;;;;5024210;28;20049;-63
2022/04/19 12:37:14;;;;;;;5.15;1.55;;;28.60;52.80;;;;;;5028083;28;20045;-63
2022/04/19 12:40:26;;;;;;;3.72;1.60;;;29.70;52.10;;;;;;5029201;28;20040;-63
2022/04/19 12:43:46;;;;;;;14.00;1.90;;;27.50;51.60;;;;;;5026491;28;20397;-63
2022/04/19 12:46:51;;;;;;;10.05;2.35;;;30.00;51.20;;;;;;5028049;28;20044;-62
2022/04/19 12:49:56;;;;;;;4.25;1.80;;;27.60;52.20;;;;;;5024054;28;20033;-65
2022/04/19 12:53:02;;;;;;;6.40;1.90;;;27.90;54.00;;;;;;5023884;28;20487;-63
2022/04/19 12:56:53;;;;;;;3.28;1.73;;;27.60;53.70;;;;;;5021870;28;20642;-64
2022/04/19 12:59:57;;;;;;;6.88;2.03;;;26.30;54.50;;;;;;5024906;28;20040;-65
2022/04/19 13:03:03;;;;;;;4.55;2.00;;;25.60;56.30;;;;;;5025076;28;20041;-74
2022/04/19 13:12:56;;;;;;;3.75;1.60;;;27.70;54.60;;;;;;5024521;28;20045;-74
2022/04/19 13:16:01;;;;;;;4.30;1.70;;;29.30;53.20;;;;;;5022904;28;20060;-73
2022/04/19 13:19:06;;;;;;;5.25;1.80;;;29.80;53.00;;;;;;5025533;28;20052;-72
2022/04/19 13:22:10;;;;;;;7.10;1.83;;;28.90;51.20;;;;;;5027139;28;20052;-74
2022/04/19 13:25:14;;;;;;;5.57;1.80;;;28.30;52.50;;;;;;5023596;28;20056;-75
2022/04/19 13:28:19;;;;;;;4.35;1.75;;;27.80;53.00;;;;;;5024482;28;20056;-73
2022/04/19 13:31:24;;;;;;;4.78;2.28;;;28.10;54.90;;;;;;5029791;28;20404;-74
2022/04/19 13:34:31;;;;;;;14.63;1.92;;;24.30;54.20;;;;;;5027430;28;20392;-72
2022/04/19 13:40:58;;;;;;;4.07;1.70;;;23.90;57.20;;;;;;5025955;28;20052;-73
2022/04/19 13:44:03;;;;;;;4.30;1.73;;;23.60;57.10;;;;;;5030660;28;20044;-73
2022/04/19 13:47:09;;;;;;;8.32;2.00;;;23.40;58.00;;;;;;5021713;28;20032;-74
2022/04/19 13:50:13;;;;;;;5.60;2.25;;;23.60;57.90;;;;;;5023532;28;20757;-74
2022/04/19 13:53:17;;;;;;;6.93;2.50;;;23.50;57.20;;;;;;5028216;28;20044;-74
2022/04/19 13:56:24;;;;;;;5.53;2.53;;;23.90;57.20;;;;;;5023879;28;20060;-74
2022/04/19 13:59:29;;;;;;;5.47;2.08;;;24.30;58.10;;;;;;5030256;28;20400;-74
2022/04/19 14:02:34;;;;;;;2.95;1.63;;;24.30;56.20;;;;;;5031653;28;20041;-72
2022/04/19 14:05:38;;;;;;;2.63;1.70;;;24.10;56.70;;;;;;5012989;28;20145;-74
2022/04/19 14:08:43;;;;;;;5.28;1.77;;;23.80;57.10;;;;;;5024226;28;20049;-74
2022/04/19 14:11:47;;;;;;;5.20;1.90;;;23.80;58.30;;;;;;5022749;28;20044;-73
2022/04/19 14:14:51;;;;;;;7.35;1.80;;;23.40;56.80;;;;;;5018701;28;20120;-73
2022/04/19 14:17:56;;;;;;;5.13;2.33;;;23.30;58.80;;;;;;5022984;28;20068;-74
2022/04/19 14:21:00;;;;;;;4.50;1.95;;;23.70;58.60;;;;;;5021568;28;20053;-73
2022/04/19 14:24:04;;;;;;;6.13;1.80;;;23.90;57.80;;;;;;5025317;28;20390;-74
2022/04/19 14:27:08;;;;;;;9.65;2.17;;;22.10;57.90;;;;;;5026616;28;20052;-73
2022/04/19 14:33:35;;;;;;;5.25;2.08;;;22.30;58.90;;;;;;5025635;28;20044;-74
2022/04/19 14:36:39;;;;;;;6.38;2.05;;;22.10;59.80;;;;;;5022369;28;20045;-74
2022/04/19 14:39:48;;;;;;;4.97;2.10;;;22.50;59.00;;;;;;5026199;28;20397;-75
2022/04/19 14:42:52;;;;;;;6.28;2.20;;;22.20;57.00;;;;;;5024912;28;20048;-74
2022/04/19 14:45:59;;;;;;;7.30;2.30;;;21.50;59.40;;;;;;5028554;28;20400;-74
2022/04/19 14:49:03;;;;;;;4.40;1.90;;;21.70;60.00;;;;;;5030187;28;20048;-74
2022/04/19 14:52:21;;;;;;;5.25;2.83;;;21.50;59.10;;;;;;5024019;28;20060;-74
2022/04/19 14:55:26;;;;;;;5.20;1.98;;;21.60;60.40;;;;;;5018591;28;20036;-74
2022/04/19 14:58:30;;;;;;;4.20;1.55;;;22.00;59.40;;;;;;5024271;28;20045;-74
2022/04/19 15:01:35;;;;;;;5.72;2.08;;;22.00;58.40;;;;;;5024047;28;20043;-74
2022/04/19 15:04:40;;;;;;;4.43;1.70;;;21.60;58.30;;;;;;5023251;28;20511;-64
2022/04/19 15:07:44;;;;;;;4.50;1.70;;;21.00;59.40;;;;;;5022746;28;20040;-64
2022/04/19 15:10:49;;;;;;;2.42;1.70;;;20.00;61.20;;;;;;5030441;28;20056;-64
2022/04/19 15:13:53;;;;;;;26.80;2.55;;;20.50;60.10;;;;;;5034251;28;20392;-65
2022/04/19 15:17:01;;;;;;;6.28;1.85;;;21.10;60.60;;;;;;5035508;28;20495;-64
2022/04/19 15:20:05;;;;;;;3.30;1.55;;;21.10;60.00;;;;;;5022406;28;20040;-64
2022/04/19 15:23:09;;;;;;;7.80;2.47;;;21.20;60.90;;;;;;5039218;28;20412;-64
2022/04/19 15:26:14;;;;;;;5.72;1.45;;;21.00;59.60;;;;;;5035793;28;20032;-64
2022/04/19 15:29:18;;;;;;;6.63;2.03;;;21.10;61.70;;;;;;5034823;28;20043;-64
2022/04/19 15:32:22;;;;;;;9.02;2.50;;;21.10;60.80;;;;;;5033151;28;20042;-64
2022/04/19 15:35:30;;;;;;;6.50;1.70;;;19.80;61.60;;;;;;5034481;28;20211;-63
2022/04/19 15:38:35;;;;;;;8.70;2.45;;;20.10;63.30;;;;;;5034713;28;20045;-63
2022/04/19 15:41:39;;;;;;;7.78;2.10;;;19.50;63.40;;;;;;5033184;28;20045;-64
2022/04/19 15:44:43;;;;;;;4.00;1.80;;;19.90;63.80;;;;;;5034549;28;20045;-64
2022/04/19 15:47:47;;;;;;;4.78;2.10;;;20.10;64.60;;;;;;5034792;28;20511;-64
2022/04/19 15:50:54;;;;;;;3.20;2.20;;;20.00;63.50;;;;;;5033451;28;20052;-64
2022/04/19 15:53:58;;;;;;;4.03;1.90;;;19.90;63.30;;;;;;5033392;28;20052;-64
2022/04/19 15:57:02;;;;;;;4.53;1.70;;;19.70;63.50;;;;;;5033153;28;20048;-64
2022/04/19 16:00:06;;;;;;;7.20;2.13;;;19.50;64.00;;;;;;5034090;28;20428;-64
2022/04/19 16:03:16;;;;;;;5.30;1.98;;;19.30;63.70;;;;;;5034702;28;20072;-64
2022/04/19 16:06:21;;;;;;;4.65;1.77;;;19.20;64.20;;;;;;5035451;28;20048;-63
2022/04/19 16:09:25;;;;;;;8.10;2.08;;;19.10;64.00;;;;;;5033378;28;20044;-63
2022/04/19 16:12:29;;;;;;;3.63;1.83;;;19.10;64.50;;;;;;5034552;28;20048;-64
2022/04/19 16:15:33;;;;;;;5.90;2.25;;;19.00;64.00;;;;;;5033062;28;20056;-64
2022/04/19 16:25:22;;;;;;;;;;;18.60;66.20;;;;;;5033888;28;20500;-64
2022/04/19 16:28:29;;;;;;;3.10;1.85;;;18.50;66.30;;;;;;5032723;28;19916;-63
2022/04/19 16:31:33;;;;;;;7.82;2.00;;;18.60;65.70;;;;;;5033026;28;20056;-64
2022/04/19 16:34:39;;;;;;;4.57;2.20;;;18.60;66.30;;;;;;5032554;28;20052;-65
2022/04/19 16:37:42;;;;;;;7.20;1.92;;;18.50;66.20;;;;;;5032439;28;20048;-65
2022/04/19 16:40:49;;;;;;;7.47;1.90;;;18.50;66.50;;;;;;5032845;28;20072;-64
2022/04/19 16:43:53;;;;;;;4.80;2.42;;;18.50;66.90;;;;;;5032468;28;20050;-64
2022/04/19 16:46:57;;;;;;;6.13;2.13;;;18.40;67.40;;;;;;5031960;28;20678;-64
2022/04/19 16:50:01;;;;;;;6.53;1.90;;;18.30;65.70;;;;;;5032035;28;20052;-64
2022/04/19 16:53:07;;;;;;;6.43;2.08;;;18.20;66.90;;;;;;5031896;28;20045;-65
2022/04/19 16:56:11;;;;;;;5.43;1.65;;;18.00;66.50;;;;;;5031923;28;20052;-64
2022/04/19 16:59:14;;;;;;;4.03;2.05;;;17.80;68.00;;;;;;5032236;28;20048;-64
2022/04/19 17:02:19;;;;;;;10.35;1.80;;;17.50;68.00;;;;;;5032400;28;20048;-64
2022/04/19 17:05:23;;;;;;;5.82;2.28;;;17.20;67.30;;;;;;5031968;28;20044;-63
2022/04/19 17:08:27;;;;;;;4.32;2.17;;;17.00;67.80;;;;;;5031771;28;20052;-63
2022/04/19 17:11:31;;;;;;;4.72;1.88;;;16.80;67.70;;;;;;5032007;28;20523;-65
2022/04/19 17:14:34;;;;;;;3.53;1.85;;;16.60;68.70;;;;;;5031063;28;20060;-64
2022/04/19 17:17:39;;;;;;;7.53;1.92;;;16.50;69.60;;;;;;5031482;28;20049;-64
2022/04/19 17:20:44;;;;;;;11.70;2.15;;;16.40;69.40;;;;;;5030750;28;20053;-64